createdAt,value
2022-08-18T00:00:55.545Z,101450.03
2022-08-18T00:02:29.940Z,101386.34
2022-08-18T00:03:57.161Z,101377.72
2022-08-18T00:04:57.149Z,101476.69
2022-08-18T00:05:59.116Z,101394.50
2022-08-18T00:07:00.919Z,101435.94
2022-08-18T00:08:02.773Z,101424.06
2022-08-18T00:09:07.942Z,101492.66
2022-08-18T00:10:18.898Z,101337.94
2022-08-18T00:11:21.313Z,101445.50
2022-08-18T00:12:25.539Z,101504.34
2022-08-18T00:13:27.389Z,101459.66
2022-08-18T00:14:29.361Z,101421.81
2022-08-18T00:15:31.123Z,101471.06
2022-08-18T00:16:33.046Z,101439.44
2022-08-18T00:17:36.735Z,101478.81
2022-08-18T00:18:38.626Z,101380.50
2022-08-18T00:19:46.342Z,101463.03
2022-08-18T00:20:50.191Z,101349.84
2022-08-18T00:21:52.311Z,101361.53
2022-08-18T00:22:56.595Z,101420.25
2022-08-18T00:23:58.382Z,101460.03
2022-08-18T00:25:00.338Z,101461.34
2022-08-18T00:26:04.654Z,101425.94
2022-08-18T00:27:07.211Z,101449.66
2022-08-18T00:28:09.881Z,101460.88
2022-08-18T00:29:11.615Z,101482.69
2022-08-18T00:30:21.337Z,101505.50
2022-08-18T00:31:23.120Z,101457.88
2022-08-18T00:32:37.846Z,101443.53
2022-08-18T00:33:39.685Z,101404.84
2022-08-18T00:34:41.868Z,101490.25
2022-08-18T00:35:43.679Z,101391.00
2022-08-18T00:36:47.265Z,101380.88
2022-08-18T00:37:49.414Z,101375.84
2022-08-18T00:38:51.655Z,101470.59
2022-08-18T00:39:54.223Z,101484.19
2022-08-18T00:40:57.072Z,101515.72
2022-08-18T00:41:58.922Z,101387.44
2022-08-18T00:43:03.179Z,101354.22
2022-08-18T00:44:05.100Z,101392.47
2022-08-18T00:45:07.610Z,101355.16
2022-08-18T00:46:16.586Z,101394.91
2022-08-18T00:47:32.642Z,101506.94
2022-08-18T00:48:40.436Z,101445.06
2022-08-18T00:49:53.341Z,101392.41
2022-08-18T00:51:02.721Z,101509.84
2022-08-18T00:52:05.713Z,101500.47
2022-08-18T00:53:15.350Z,101542.22
2022-08-18T00:54:20.972Z,101540.34
2022-08-18T00:55:24.028Z,101413.25
2022-08-18T00:56:48.455Z,101501.91
2022-08-18T00:57:54.340Z,101444.91
2022-08-18T00:59:12.504Z,101439.25
2022-08-18T01:00:15.438Z,101508.44
2022-08-18T01:01:23.414Z,101505.16
2022-08-18T01:02:33.577Z,101509.56
2022-08-18T01:03:40.158Z,101503.66
2022-08-18T01:04:47.651Z,101564.34
2022-08-18T01:06:11.739Z,101555.97
2022-08-18T01:07:20.753Z,101495.03
2022-08-18T01:08:28.708Z,101450.75
2022-08-18T01:09:31.563Z,101567.88
2022-08-18T01:10:34.297Z,101546.25
2022-08-18T01:11:38.507Z,101573.91
2022-08-18T01:12:45.857Z,101509.47
2022-08-18T01:13:48.653Z,101549.63
2022-08-18T01:14:50.460Z,101509.28
2022-08-18T01:15:52.356Z,101440.38
2022-08-18T01:17:12.845Z,101491.97
2022-08-18T01:18:33.342Z,101500.66
2022-08-18T01:19:54.470Z,101499.81
2022-08-18T01:21:38.147Z,101568.19
2022-08-18T01:22:47.591Z,101572.75
2022-08-18T01:23:51.685Z,101474.38
2022-08-18T01:25:16.171Z,101525.94
2022-08-18T01:26:19.477Z,101501.03
2022-08-18T01:27:21.627Z,101502.34
2022-08-18T01:28:23.967Z,101509.84
2022-08-18T01:29:28.020Z,101471.56
2022-08-18T01:30:32.722Z,101511.69
2022-08-18T01:31:40.137Z,101557.72
2022-08-18T01:32:56.920Z,101563.41
2022-08-18T01:33:59.672Z,101522.38
2022-08-18T01:35:01.500Z,101517.31
2022-08-18T01:36:10.336Z,101548.41
2022-08-18T01:37:12.110Z,101414.88
2022-08-18T01:38:14.297Z,101492.41
2022-08-18T01:39:16.051Z,101548.78
2022-08-18T01:41:22.912Z,101523.19
2022-08-18T01:41:59.587Z,101545.63
2022-08-18T01:43:03.710Z,101432.13
2022-08-18T01:44:06.420Z,101433.53
2022-08-18T01:45:09.011Z,101504.31
2022-08-18T01:46:10.894Z,101479.69
2022-08-18T01:47:12.919Z,101536.88
2022-08-18T01:48:14.770Z,101503.38
2022-08-18T01:49:16.587Z,101473.81
2022-08-18T01:50:18.642Z,101429.09
2022-08-18T01:51:38.043Z,101513.69
2022-08-18T01:52:43.110Z,101517.50
2022-08-18T01:53:45.138Z,101445.72
2022-08-18T01:54:48.619Z,101433.44
2022-08-18T01:55:50.823Z,101545.53
2022-08-18T01:56:53.522Z,101507.22
2022-08-18T01:57:55.994Z,101534.91
2022-08-18T01:58:57.747Z,101518.06
2022-08-18T02:00:01.178Z,101491.09
2022-08-18T02:01:04.272Z,101514.34
2022-08-18T02:02:06.969Z,101563.22
2022-08-18T02:03:14.828Z,101485.28
2022-08-18T02:04:34.528Z,101550.19
2022-08-18T02:05:43.618Z,101545.69
2022-08-18T02:06:47.896Z,101517.69
2022-08-18T02:07:53.479Z,101399.28
2022-08-18T02:08:56.421Z,101456.56
2022-08-18T02:09:59.176Z,101502.72
2022-08-18T02:11:01.679Z,101526.75
2022-08-18T02:12:05.853Z,101549.16
2022-08-18T02:13:09.097Z,101487.44
2022-08-18T02:14:10.980Z,101405.53
2022-08-18T02:15:12.840Z,101466.31
2022-08-18T02:16:14.717Z,101524.25
2022-08-18T02:17:16.571Z,101525.72
2022-08-18T02:18:37.212Z,101579.22
2022-08-18T02:19:45.690Z,101496.16
2022-08-18T02:20:48.097Z,101561.69
2022-08-18T02:21:52.430Z,101491.94
2022-08-18T02:22:54.297Z,101498.78
2022-08-18T02:23:56.234Z,101445.09
2022-08-18T02:24:58.242Z,101515.91
2022-08-18T02:26:03.516Z,101486.69
2022-08-18T02:27:06.786Z,101502.69
2022-08-18T02:28:09.070Z,101546.91
2022-08-18T02:29:11.165Z,101511.69
2022-08-18T02:30:16.862Z,101591.13
2022-08-18T02:31:21.216Z,101436.25
2022-08-18T02:32:23.087Z,101434.56
2022-08-18T02:33:27.257Z,101459.78
2022-08-18T02:34:29.068Z,101539.22
2022-08-18T02:35:30.995Z,101448.81
2022-08-18T02:36:32.779Z,101515.44
2022-08-18T02:37:34.619Z,101549.91
2022-08-18T02:38:36.749Z,101484.53
2022-08-18T02:39:42.165Z,101512.91
2022-08-18T02:40:46.533Z,101510.94
2022-08-18T02:41:48.485Z,101493.81
2022-08-18T02:42:52.755Z,101557.09
2022-08-18T02:43:54.824Z,101541.75
2022-08-18T02:44:56.624Z,101536.50
2022-08-18T02:45:58.802Z,101523.00
2022-08-18T02:47:01.094Z,101571.63
2022-08-18T02:48:02.981Z,101523.38
2022-08-18T02:49:08.189Z,101591.84
2022-08-18T02:50:10.892Z,101423.66
2022-08-18T02:51:16.861Z,101599.00
2022-08-18T02:52:18.711Z,101405.69
2022-08-18T02:53:23.257Z,101538.53
2022-08-18T02:54:25.843Z,101592.53
2022-08-18T02:55:29.360Z,101439.63
2022-08-18T02:56:32.863Z,101595.41
2022-08-18T02:57:48.975Z,101457.63
2022-08-18T02:58:53.872Z,101493.75
2022-08-18T02:59:56.039Z,101561.66
2022-08-18T03:00:57.957Z,101436.84
2022-08-18T03:01:59.802Z,101575.72
2022-08-18T03:03:01.601Z,101583.66
2022-08-18T03:04:05.997Z,101470.22
2022-08-18T03:05:09.042Z,101558.94
2022-08-18T03:06:18.247Z,101559.97
2022-08-18T03:07:20.075Z,101554.16
2022-08-18T03:08:21.877Z,101558.56
2022-08-18T03:09:23.804Z,101523.56
2022-08-18T03:10:32.467Z,101554.47
2022-08-18T03:11:36.840Z,101609.38
2022-08-18T03:12:38.779Z,101473.31
2022-08-18T03:13:40.541Z,101563.72
2022-08-18T03:14:42.477Z,101471.47
2022-08-18T03:15:44.805Z,101565.75
2022-08-18T03:16:54.181Z,101621.63
2022-08-18T03:17:56.514Z,101607.72
2022-08-18T03:18:59.394Z,101626.03
2022-08-18T03:20:01.179Z,101573.81
2022-08-18T03:21:07.654Z,101571.19
2022-08-18T03:22:27.371Z,101560.53
2022-08-18T03:23:30.549Z,101490.25
2022-08-18T03:24:33.226Z,101556.03
2022-08-18T03:25:35.248Z,101565.75
2022-08-18T03:26:42.052Z,101591.78
2022-08-18T03:27:43.938Z,101557.72
2022-08-18T03:28:48.553Z,101490.81
2022-08-18T03:29:51.290Z,101544.44
2022-08-18T03:30:53.091Z,101557.59
2022-08-18T03:31:54.865Z,101526.44
2022-08-18T03:32:58.488Z,101645.56
2022-08-18T03:34:01.684Z,101644.53
2022-08-18T03:35:03.819Z,101581.47
2022-08-18T03:36:07.297Z,101603.38
2022-08-18T03:37:09.459Z,101605.72
2022-08-18T03:38:11.505Z,101509.78
2022-08-18T03:39:14.089Z,101518.09
2022-08-18T03:40:15.967Z,101592.25
2022-08-18T03:41:57.258Z,101500.31
2022-08-18T03:42:42.475Z,101643.13
2022-08-18T03:43:51.257Z,101616.03
2022-08-18T03:44:53.615Z,101533.63
2022-08-18T03:45:55.648Z,101507.59
2022-08-18T03:46:57.838Z,101490.38
2022-08-18T03:48:00.814Z,101521.09
2022-08-18T03:49:02.677Z,101577.97
2022-08-18T03:50:04.793Z,101645.94
2022-08-18T03:51:18.817Z,101645.56
2022-08-18T03:52:20.643Z,101642.94
2022-08-18T03:53:22.465Z,101620.66
2022-08-18T03:54:24.321Z,101609.19
2022-08-18T03:55:29.427Z,101595.94
2022-08-18T03:56:37.968Z,101649.69
2022-08-18T03:57:39.832Z,101523.50
2022-08-18T03:58:50.543Z,101614.88
2022-08-18T03:59:52.366Z,101541.09
2022-08-18T04:00:54.736Z,101657.81
2022-08-18T04:01:56.704Z,101463.34
2022-08-18T04:02:59.720Z,101586.78
2022-08-18T04:04:04.247Z,101632.50
2022-08-18T04:05:07.395Z,101615.34
2022-08-18T04:06:15.303Z,101610.28
2022-08-18T04:07:31.779Z,101606.38
2022-08-18T04:08:33.590Z,101629.78
2022-08-18T04:09:38.363Z,101538.75
2022-08-18T04:10:40.331Z,101592.31
2022-08-18T04:11:43.707Z,101653.13
2022-08-18T04:12:46.399Z,101611.69
2022-08-18T04:13:48.583Z,101458.88
2022-08-18T04:14:50.688Z,101637.34
2022-08-18T04:15:52.478Z,101475.53
2022-08-18T04:16:54.326Z,101592.69
2022-08-18T04:18:04.739Z,101628.63
2022-08-18T04:19:07.485Z,101664.66
2022-08-18T04:20:10.859Z,101636.03
2022-08-18T04:21:13.906Z,101670.25
2022-08-18T04:22:18.171Z,101540.28
2022-08-18T04:23:21.359Z,101666.94
2022-08-18T04:24:24.125Z,101637.91
2022-08-18T04:25:32.159Z,101613.81
2022-08-18T04:26:45.457Z,101673.81
2022-08-18T04:27:47.547Z,101610.53
2022-08-18T04:28:49.452Z,101641.44
2022-08-18T04:29:51.503Z,101641.88
2022-08-18T04:30:54.262Z,101657.50
2022-08-18T04:31:56.410Z,101580.75
2022-08-18T04:32:58.711Z,101633.88
2022-08-18T04:34:01.695Z,101662.63
2022-08-18T04:35:04.490Z,101625.13
2022-08-18T04:36:18.839Z,101623.94
2022-08-18T04:37:22.741Z,101560.59
2022-08-18T04:38:24.624Z,101679.63
2022-08-18T04:39:26.657Z,101640.34
2022-08-18T04:40:29.926Z,101636.94
2022-08-18T04:41:32.020Z,101520.31
2022-08-18T04:42:34.063Z,101568.88
2022-08-18T04:43:42.186Z,101669.97
2022-08-18T04:44:44.164Z,101508.34
2022-08-18T04:45:46.343Z,101497.34
2022-08-18T04:46:54.026Z,101668.47
2022-08-18T04:47:56.020Z,101449.78
2022-08-18T04:48:59.545Z,101672.00
2022-08-18T04:50:01.381Z,101615.34
2022-08-18T04:51:05.729Z,101641.16
2022-08-18T04:52:40.175Z,101680.34
2022-08-18T04:53:46.991Z,101667.38
2022-08-18T04:54:48.973Z,101642.31
2022-08-18T04:55:53.087Z,101638.63
2022-08-18T04:56:55.427Z,101661.97
2022-08-18T04:57:59.450Z,101620.59
2022-08-18T04:59:10.500Z,101603.16
2022-08-18T05:00:14.120Z,101643.22
2022-08-18T05:01:17.680Z,101657.94
2022-08-18T05:02:21.170Z,101679.50
2022-08-18T05:03:26.802Z,101682.38
2022-08-18T05:04:30.376Z,101658.28
2022-08-18T05:05:32.128Z,101559.41
2022-08-18T05:06:35.428Z,101649.41
2022-08-18T05:07:37.453Z,101675.25
2022-08-18T05:08:39.358Z,101641.25
2022-08-18T05:09:43.714Z,101636.88
2022-08-18T05:10:48.298Z,101597.00
2022-08-18T05:11:51.088Z,101696.63
2022-08-18T05:12:53.050Z,101699.16
2022-08-18T05:13:57.903Z,101692.28
2022-08-18T05:14:59.695Z,101632.44
2022-08-18T05:16:11.724Z,101638.50
2022-08-18T05:17:18.680Z,101614.31
2022-08-18T05:18:21.052Z,101675.75
2022-08-18T05:19:26.738Z,101563.31
2022-08-18T05:20:28.925Z,101647.75
2022-08-18T05:21:31.020Z,101610.06
2022-08-18T05:22:39.266Z,101695.09
2022-08-18T05:23:45.590Z,101550.13
2022-08-18T05:24:47.600Z,101626.69
2022-08-18T05:25:49.539Z,101653.22
2022-08-18T05:26:55.938Z,101666.34
2022-08-18T05:27:57.835Z,101650.13
2022-08-18T05:29:04.331Z,101702.75
2022-08-18T05:30:21.615Z,101708.13
2022-08-18T05:31:25.600Z,101705.19
2022-08-18T05:32:48.085Z,101682.63
2022-08-18T05:33:53.141Z,101644.25
2022-08-18T05:34:55.033Z,101622.91
2022-08-18T05:36:05.764Z,101702.31
2022-08-18T05:37:35.775Z,101713.28
2022-08-18T05:38:43.709Z,101708.88
2022-08-18T05:39:48.042Z,101719.22
2022-08-18T05:41:05.311Z,101720.53
2022-08-18T05:42:12.629Z,101622.16
2022-08-18T05:43:16.512Z,101657.91
2022-08-18T05:44:27.735Z,101719.13
2022-08-18T05:45:29.853Z,101665.88
2022-08-18T05:46:48.667Z,101658.91
2022-08-18T05:47:50.623Z,101689.88
2022-08-18T05:48:52.570Z,101684.63
2022-08-18T05:49:57.645Z,101683.97
2022-08-18T05:51:04.057Z,101726.50
2022-08-18T05:52:13.087Z,101620.72
2022-08-18T05:53:20.548Z,101637.19
2022-08-18T05:54:42.253Z,101681.34
2022-08-18T05:56:20.636Z,101698.84
2022-08-18T05:57:28.249Z,101670.47
2022-08-18T05:58:44.582Z,101676.00
2022-08-18T05:59:47.842Z,101673.19
2022-08-18T06:01:00.232Z,101656.72
2022-08-18T06:03:06.678Z,101718.19
2022-08-18T06:04:23.645Z,101683.63
2022-08-18T06:05:35.089Z,101688.59
2022-08-18T06:06:37.641Z,101651.44
2022-08-18T06:07:49.276Z,101690.16
2022-08-18T06:09:28.477Z,101712.47
2022-08-18T06:10:31.325Z,101640.59
2022-08-18T06:11:33.096Z,101648.56
2022-08-18T06:12:47.114Z,101725.03
2022-08-18T06:13:50.276Z,101724.00
2022-08-18T06:15:15.046Z,101689.44
2022-08-18T06:16:37.178Z,101723.63
2022-08-18T06:17:53.945Z,101725.97
2022-08-18T06:19:09.048Z,101694.97
2022-08-18T06:20:37.696Z,101728.31
2022-08-18T06:21:51.532Z,101731.22
2022-08-18T06:23:03.116Z,101684.84
2022-08-18T06:24:15.883Z,101729.72
2022-08-18T06:25:27.477Z,101736.19
2022-08-18T06:26:41.477Z,101730.75
2022-08-18T06:27:56.023Z,101731.22
2022-08-18T06:29:06.585Z,101717.91
2022-08-18T06:30:20.608Z,101699.75
2022-08-18T06:31:47.923Z,101695.34
2022-08-18T06:33:10.548Z,101731.69
2022-08-18T06:34:24.527Z,101703.41
2022-08-18T06:36:02.764Z,101733.84
2022-08-18T06:37:22.131Z,101667.28
2022-08-18T06:38:51.492Z,101650.91
2022-08-18T06:39:53.489Z,101747.63
2022-08-18T06:41:37.935Z,101739.66
2022-08-18T06:42:41.701Z,101705.56
2022-08-18T06:44:11.337Z,101729.44
2022-08-18T06:45:18.347Z,101694.97
2022-08-18T06:46:27.320Z,101691.97
2022-08-18T06:47:41.020Z,101730.38
2022-08-18T06:48:54.447Z,101682.19
2022-08-18T06:50:09.095Z,101663.53
2022-08-18T06:51:14.793Z,101712.97
2022-08-18T06:52:31.077Z,101736.84
2022-08-18T06:54:01.405Z,101724.66
2022-08-18T06:55:16.482Z,101727.97
2022-08-18T06:56:33.369Z,101745.28
2022-08-18T06:57:38.164Z,101735.63
2022-08-18T06:58:40.151Z,101753.16
2022-08-18T06:59:42.202Z,101749.78
2022-08-18T07:00:55.961Z,101692.47
2022-08-18T07:02:21.267Z,101706.22
2022-08-18T07:03:41.075Z,101725.63
2022-08-18T07:05:00.186Z,101618.13
2022-08-18T07:06:26.513Z,101745.47
2022-08-18T07:07:50.812Z,101661.94
2022-08-18T07:08:55.747Z,101745.97
2022-08-18T07:09:58.674Z,101744.81
2022-08-18T07:11:22.853Z,101733.84
2022-08-18T07:12:32.715Z,101751.75
2022-08-18T07:13:40.621Z,101601.31
2022-08-18T07:14:59.041Z,101732.25
2022-08-18T07:16:46.933Z,101706.00
2022-08-18T07:17:49.308Z,101697.78
2022-08-18T07:18:52.192Z,101767.88
2022-08-18T07:20:04.257Z,101762.19
2022-08-18T07:21:06.178Z,101705.91
2022-08-18T07:22:17.439Z,101742.22
2022-08-18T07:23:25.632Z,101727.31
2022-08-18T07:24:34.346Z,101707.22
2022-08-18T07:25:43.276Z,101764.69
2022-08-18T07:27:11.609Z,101770.59
2022-08-18T07:28:42.043Z,101717.09
2022-08-18T07:30:06.145Z,101778.66
2022-08-18T07:31:38.649Z,101783.28
2022-08-18T07:32:53.204Z,101775.13
2022-08-18T07:34:15.830Z,101775.50
2022-08-18T07:35:24.257Z,101780.94
2022-08-18T07:36:31.766Z,101776.91
2022-08-18T07:37:43.610Z,101784.38
2022-08-18T07:38:57.313Z,101789.66
2022-08-18T07:40:07.582Z,101725.19
2022-08-18T07:41:20.732Z,101737.69
2022-08-18T07:43:00.691Z,101784.19
2022-08-18T07:44:13.993Z,101761.25
2022-08-18T07:45:23.787Z,101756.34
2022-08-18T07:46:55.236Z,101791.59
2022-08-18T07:48:21.063Z,101801.66
2022-08-18T07:49:35.312Z,101769.47
2022-08-18T07:51:03.119Z,101787.41
2022-08-18T07:52:35.818Z,101752.22
2022-08-18T07:53:54.543Z,101784.09
2022-08-18T07:55:21.808Z,101764.69
2022-08-18T07:56:29.788Z,101785.34
2022-08-18T07:57:49.710Z,101716.88
2022-08-18T07:59:01.596Z,101742.97
2022-08-18T08:00:41.519Z,101797.03
2022-08-18T08:01:52.317Z,101789.53
2022-08-18T08:03:22.640Z,101799.31
2022-08-18T08:04:52.105Z,101790.78
2022-08-18T08:06:02.112Z,101797.91
2022-08-18T08:07:29.997Z,101791.50
2022-08-18T08:08:42.543Z,101782.63
2022-08-18T08:09:48.349Z,101802.03
2022-08-18T08:11:07.400Z,101810.38
2022-08-18T08:12:22.665Z,101809.53
2022-08-18T08:13:54.198Z,101786.63
2022-08-18T08:15:09.357Z,101704.84
2022-08-18T08:16:11.117Z,101816.28
2022-08-18T08:17:32.642Z,101796.75
2022-08-18T08:18:46.522Z,101821.06
2022-08-18T08:20:08.669Z,101809.16
2022-08-18T08:21:20.068Z,101814.59
2022-08-18T08:22:54.144Z,101813.94
2022-08-18T08:24:08.471Z,101811.69
2022-08-18T08:25:45.707Z,101777.72
2022-08-18T08:27:04.562Z,101771.63
2022-08-18T08:28:23.379Z,101738.72
2022-08-18T08:29:50.114Z,101781.09
2022-08-18T08:31:36.627Z,101678.81
2022-08-18T08:33:31.919Z,101804.28
2022-08-18T08:34:49.372Z,101777.63
2022-08-18T08:35:57.933Z,101746.63
2022-08-18T08:37:05.971Z,101788.06
2022-08-18T08:38:42.466Z,101800.63
2022-08-18T08:39:55.700Z,101797.91
2022-08-18T08:41:11.025Z,101793.50
2022-08-18T08:42:45.539Z,101793.28
2022-08-18T08:44:03.614Z,101758.69
2022-08-18T08:45:11.059Z,101758.91
2022-08-18T08:46:22.050Z,101739.22
2022-08-18T08:47:32.532Z,101809.53
2022-08-18T08:48:41.363Z,101738.56
2022-08-18T08:49:59.980Z,101674.78
2022-08-18T08:51:14.863Z,101801.00
2022-08-18T08:52:30.594Z,101809.16
2022-08-18T08:53:35.130Z,101808.13
2022-08-18T08:54:51.027Z,101808.50
2022-08-18T08:56:02.028Z,101807.47
2022-08-18T08:57:05.496Z,101775.94
2022-08-18T08:58:27.051Z,101807.47
2022-08-18T08:59:28.904Z,101770.31
2022-08-18T09:00:31.462Z,101785.88
2022-08-18T09:01:42.373Z,101801.56
2022-08-18T09:02:48.446Z,101807.66
2022-08-18T09:04:00.676Z,101764.91
2022-08-18T09:05:18.633Z,101759.06
2022-08-18T09:06:32.629Z,101796.00
2022-08-18T09:07:53.645Z,101797.91
2022-08-18T09:08:58.795Z,101797.03
2022-08-18T09:10:09.537Z,101796.22
2022-08-18T09:11:37.389Z,101795.56
2022-08-18T09:13:06.803Z,101787.69
2022-08-18T09:14:37.511Z,101788.34
2022-08-18T09:16:01.434Z,101791.31
2022-08-18T09:17:15.823Z,101793.19
2022-08-18T09:18:35.813Z,101794.81
2022-08-18T09:20:21.894Z,101755.88
2022-08-18T09:21:38.466Z,101783.16
2022-08-18T09:22:54.501Z,101759.25
2022-08-18T09:24:25.912Z,101732.16
2022-08-18T09:25:42.375Z,101790.84
2022-08-18T09:27:03.576Z,101763.66
2022-08-18T09:28:12.042Z,101768.06
2022-08-18T09:29:48.754Z,101791.97
2022-08-18T09:32:27.441Z,101794.69
2022-08-18T09:33:57.049Z,101798.19
2022-08-18T09:35:22.961Z,101796.38
2022-08-18T09:36:56.486Z,101797.81
2022-08-18T09:38:26.836Z,101736.88
2022-08-18T09:40:12.907Z,101752.78
2022-08-18T09:41:34.240Z,101789.72
2022-08-18T09:42:51.059Z,101793.00
2022-08-18T09:45:34.463Z,101780.53
2022-08-18T09:46:48.353Z,101789.44
2022-08-18T09:47:52.918Z,101794.22
2022-08-18T09:49:27.363Z,101785.69
2022-08-18T09:50:38.696Z,101794.69
2022-08-18T09:51:41.319Z,101717.09
2022-08-18T09:52:43.104Z,101798.84
2022-08-18T09:53:46.461Z,101795.47
2022-08-18T09:54:59.452Z,101790.03
2022-08-18T09:56:04.956Z,101723.56
2022-08-18T09:58:55.978Z,101780.06
2022-08-18T10:00:03.491Z,101785.50
2022-08-18T10:01:34.506Z,101789.56
2022-08-18T10:02:48.678Z,101780.72
2022-08-18T10:04:29.571Z,101784.78
2022-08-18T10:05:31.733Z,101780.19
2022-08-18T10:06:37.641Z,101752.44
2022-08-18T10:07:44.096Z,101748.31
2022-08-18T10:09:26.750Z,101778.00
2022-08-18T10:11:01.149Z,101761.56
2022-08-18T10:12:30.226Z,101778.56
2022-08-18T10:14:06.855Z,101745.72
2022-08-18T10:15:41.103Z,101747.31
2022-08-18T10:18:39.909Z,101731.13
2022-08-18T10:19:58.315Z,101777.75
2022-08-18T10:21:22.750Z,101774.38
2022-08-18T10:22:52.631Z,101755.72
2022-08-18T10:25:47.429Z,101776.13
2022-08-18T10:26:54.933Z,101771.66
2022-08-18T10:27:57.273Z,101702.19
2022-08-18T10:29:06.946Z,101773.72
2022-08-18T10:30:31.052Z,101776.72
2022-08-18T10:31:58.540Z,101777.16
2022-08-18T10:33:15.154Z,101757.56
2022-08-18T10:34:38.431Z,101768.59
2022-08-18T10:35:41.381Z,101777.16
2022-08-18T10:36:58.848Z,101775.84
2022-08-18T10:38:20.884Z,101782.59
2022-08-18T10:39:30.996Z,101747.31
2022-08-18T10:40:43.797Z,101780.72
2022-08-18T10:42:14.939Z,101772.19
2022-08-18T10:43:57.661Z,101745.19
2022-08-18T10:46:22.963Z,101776.69
2022-08-18T10:49:10.460Z,101775.06
2022-08-18T10:50:26.631Z,101725.66
2022-08-18T10:52:00.623Z,101735.16
2022-08-18T10:53:39.119Z,101697.00
2022-08-18T10:55:12.970Z,101776.69
2022-08-18T10:56:28.463Z,101770.00
2022-08-18T10:58:27.855Z,101707.50
2022-08-18T10:59:41.466Z,101776.94
2022-08-18T11:01:03.048Z,101779.19
2022-08-18T11:02:26.818Z,101783.81
2022-08-18T11:05:12.852Z,101741.59
2022-08-18T11:06:21.407Z,101782.47
2022-08-18T11:07:34.074Z,101741.88
2022-08-18T11:08:43.865Z,101787.91
2022-08-18T11:10:22.258Z,101752.47
2022-08-18T11:11:34.442Z,101734.84
2022-08-18T11:13:33.735Z,101792.41
2022-08-18T11:14:54.539Z,101784.34
2022-08-18T11:16:38.131Z,101763.06
2022-08-18T11:18:05.407Z,101769.56
2022-08-18T11:19:16.848Z,101789.31
2022-08-18T11:20:31.482Z,101740.28
2022-08-18T11:21:41.962Z,101731.88
2022-08-18T11:22:56.705Z,101747.72
2022-08-18T11:24:04.779Z,101785.66
2022-08-18T11:25:25.543Z,101712.94
2022-08-18T11:26:36.177Z,101755.97
2022-08-18T11:27:47.237Z,101765.06
2022-08-18T11:28:50.394Z,101737.09
2022-08-18T11:29:53.367Z,101790.63
2022-08-18T11:30:56.399Z,101684.75
2022-08-18T11:32:18.904Z,101702.25
2022-08-18T11:33:24.689Z,101773.34
2022-08-18T11:34:35.126Z,101776.22
2022-08-18T11:35:57.809Z,101784.94
2022-08-18T11:37:03.525Z,101800.13
2022-08-18T11:38:23.190Z,101793.84
2022-08-18T11:39:37.622Z,101695.13
2022-08-18T11:42:15.891Z,101802.47
2022-08-18T11:43:41.463Z,101635.41
2022-08-18T11:44:45.391Z,101762.50
2022-08-18T11:45:54.902Z,101803.50
2022-08-18T11:47:14.158Z,101694.19
2022-08-18T11:48:46.231Z,101796.81
2022-08-18T11:50:12.773Z,101738.22
2022-08-18T11:51:32.491Z,101741.13
2022-08-18T11:52:52.738Z,101796.66
2022-08-18T11:54:00.291Z,101773.78
2022-08-18T11:55:14.772Z,101789.25
2022-08-18T11:56:21.346Z,101799.09
2022-08-18T11:57:56.062Z,101790.94
2022-08-18T11:59:06.767Z,101791.59
2022-08-18T12:00:43.118Z,101792.25
2022-08-18T12:01:56.456Z,101763.53
2022-08-18T12:03:08.464Z,101791.59
2022-08-18T12:04:13.507Z,101797.41
2022-08-18T12:05:15.445Z,101798.44
2022-08-18T12:07:57.010Z,101759.25
2022-08-18T12:09:07.926Z,101791.13
2022-08-18T12:11:51.645Z,101716.38
2022-08-18T12:12:55.720Z,101723.44
2022-08-18T12:14:30.556Z,101794.88
2022-08-18T12:15:44.395Z,101691.38
2022-08-18T12:16:50.238Z,101796.00
2022-08-18T12:17:53.856Z,101803.50
2022-08-18T12:18:55.831Z,101633.72
2022-08-18T12:19:59.852Z,101786.72
2022-08-18T12:21:02.945Z,101784.28
2022-08-18T12:22:17.697Z,101793.84
2022-08-18T12:23:19.556Z,101776.13
2022-08-18T12:24:28.831Z,101793.44
2022-08-18T12:25:38.972Z,101762.72
2022-08-18T12:26:47.325Z,101777.41
2022-08-18T12:27:49.585Z,101760.56
2022-08-18T12:28:51.434Z,101756.81
2022-08-18T12:29:57.489Z,101657.66
2022-08-18T12:31:00.125Z,101755.75
2022-08-18T12:32:02.005Z,101761.22
2022-08-18T12:33:10.122Z,101753.91
2022-08-18T12:34:13.553Z,101734.97
2022-08-18T12:35:16.802Z,101733.09
2022-08-18T12:36:24.398Z,101645.38
2022-08-18T12:37:58.465Z,101651.38
2022-08-18T12:38:56.113Z,101766.22
2022-08-18T12:39:59.533Z,101789.00
2022-08-18T12:41:01.922Z,101724.91
2022-08-18T12:42:05.992Z,101793.81
2022-08-18T12:43:08.233Z,101804.69
2022-08-18T12:44:13.468Z,101755.75
2022-08-18T12:45:15.879Z,101756.88
2022-08-18T12:46:18.553Z,101793.94
2022-08-18T12:47:24.047Z,101790.22
2022-08-18T12:48:28.419Z,101774.59
2022-08-18T12:49:31.263Z,101672.59
2022-08-18T12:50:37.540Z,101794.44
2022-08-18T12:51:39.789Z,101740.88
2022-08-18T12:52:44.122Z,101739.66
2022-08-18T12:55:21.570Z,101679.47
2022-08-18T12:56:31.706Z,101774.66
2022-08-18T13:00:28.808Z,101758.94
2022-08-18T13:01:31.652Z,101772.41
2022-08-18T13:02:33.574Z,101742.69
2022-08-18T13:03:37.163Z,101679.66
2022-08-18T13:04:39.626Z,101790.81
2022-08-18T13:05:41.573Z,101775.06
2022-08-18T13:07:00.646Z,101763.13
2022-08-18T13:08:05.791Z,101753.88
2022-08-18T13:09:16.289Z,101672.81
2022-08-18T13:10:42.868Z,101762.94
2022-08-18T13:11:48.631Z,101652.09
2022-08-18T13:12:52.023Z,101757.03
2022-08-18T13:13:56.468Z,101621.94
2022-08-18T13:14:58.780Z,101667.16
2022-08-18T13:16:03.385Z,101762.47
2022-08-18T13:17:05.872Z,101638.16
2022-08-18T13:18:14.301Z,101737.25
2022-08-18T13:19:16.335Z,101658.84
2022-08-18T13:20:18.408Z,101742.91
2022-08-18T13:21:20.182Z,101741.00
2022-08-18T13:22:23.560Z,101639.00
2022-08-18T13:23:34.272Z,101717.50
2022-08-18T13:24:37.574Z,101700.44
2022-08-18T13:25:41.861Z,101755.03
2022-08-18T13:26:49.041Z,101620.91
2022-08-18T13:28:59.800Z,101760.94
2022-08-18T13:30:01.987Z,101755.31
2022-08-18T13:31:05.541Z,101628.56
2022-08-18T13:32:09.487Z,101684.47
2022-08-18T13:33:34.944Z,101763.47
2022-08-18T13:34:34.613Z,101686.00
2022-08-18T13:35:44.263Z,101716.91
2022-08-18T13:36:48.014Z,101564.13
2022-08-18T13:37:49.994Z,101750.44
2022-08-18T13:38:54.513Z,101684.63
2022-08-18T13:39:56.854Z,101644.50
2022-08-18T13:41:03.631Z,101756.34
2022-08-18T13:42:21.419Z,101699.00
2022-08-18T13:43:32.491Z,101686.44
2022-08-18T13:44:36.373Z,101716.91
2022-08-18T13:45:39.461Z,101703.16
2022-08-18T13:46:48.270Z,101720.91
2022-08-18T13:47:51.219Z,101720.91
2022-08-18T13:48:53.825Z,101668.06